Tim S. Dool — VGPY — position and weather

sailwx.info

Track history (hours):
 
Tides and Currents Weather Stations Pressure Air Temp Water Temp Dewpoint Dewpoint Depression Visibility Wind Speed Wind Dir Waves Ship Positions

Tim S. Dool

Last reported at 2014-Sep-18 18:00 UTC. Time now 2014-Sep-19 21:59 UTC.
Position N 49°06' W 067°06'.

Length 223 m; draft 7.8 m.

Type: Cargo ship. MMSI: 316001696.

Wind from 250 at 20 knots

Waves 1.0 meters (3 feet), 4 second period

Barometer 1009.0 mb
Air temperature 13.0 ° C
Visibility: greater than 10.8 NM

Date/timePositionNaut miles runAvg speedWind from/ knotsBaromVisibWave heightAir tempDewpointWater temp
2014-Sep-18 18:00N 49°06' W 067°06'6412.8 250 / 201009.010.8 1.013.0
2014-Sep-18 13:00N 48°42' W 068°36'18411.9 250 / 81010.010.8 0.5 8.0
2014-Sep-17 21:33N 46°38' W 071°57'1312.9
2014-Sep-17 20:33N 46°31' W 072°13'1212.4
2014-Sep-17 19:33N 46°23' W 072°26'1211.7
2014-Sep-17 18:33N 46°16' W 072°40'1312.7
2014-Sep-17 17:33N 46°10' W 072°56'1611.6
2014-Sep-17 16:12N 45°58' W 073°12'813.0
2014-Sep-17 15:34N 45°51' W 073°16'1313.2
2014-Sep-17 14:33N 45°40' W 073°28'10 9.5
2014-Sep-17 13:33N 45°31' W 073°31'2 1.5
2014-Sep-17 12:33N 45°29' W 073°31'4 4.1
2014-Sep-17 11:33N 45°25' W 073°30'3 2.8
2014-Sep-17 10:33N 45°24' W 073°34'3 2.8
2014-Sep-17 09:33N 45°24' W 073°38'3 3.4
2014-Sep-17 08:33N 45°25' W 073°43'6 6.0
2014-Sep-17 07:33N 45°22' W 073°50'4 4.4
2014-Sep-17 06:33N 45°19' W 073°55'1 1.0
2014-Sep-17 05:33N 45°18' W 073°56'2 1.8
2014-Sep-17 04:33N 45°16' W 073°57'7 6.9
2014-Sep-17 03:33N 45°13' W 074°06'103 7.3
2014-Sep-16 13:29N 44°15' W 076°05'2244.3
2014-Sep-16 13:00N 44°12' W 076°36'1227.5 250 / 51013.010.8 16.0
2014-Sep-16 12:33N 44°10' W 076°19'154 6.3
2014-Sep-15 12:00N 42°48' W 079°18'12311.2 310 / 31020.010.8 17.0
2014-Sep-15 01:00N 41°54' W 081°48'68 5.6 290 / 51020.010.8 0.517.0
2014-Sep-14 13:00N 42°54' W 082°30'14011.6 1024.010.8 10.0
2014-Sep-14 01:00N 45°12' W 083°00'5913.0 300 / 141022.010.8 11.0
2014-Sep-13 20:26N 45°58' W 083°54'1010.0
2014-Sep-13 19:26N 46°06' W 084°01'175 9.5
2014-Sep-13 01:00N 47°48' W 087°30'48 1.0 160 / 61023.010.8 0.5 8.0
2014-Sep-11 01:00N 48°24' W 088°18'160 9.7 030 / 301012.0 5.4 2.5 7.0
2014-Sep-10 08:30N 46°59' W 084°57'2713.4
2014-Sep-10 06:30N 46°34' W 084°41'1110.9
2014-Sep-10 05:29N 46°28' W 084°28'5 4.5
2014-Sep-10 04:16N 46°30' W 084°21'12 5.7
2014-Sep-10 02:10N 46°20' W 084°11'6 6.9
2014-Sep-10 01:16N 46°15' W 084°06'6 7.9
2014-Sep-10 00:33N 46°10' W 084°04'1110.9
2014-Sep-09 23:34N 46°02' W 083°53'  
Track history (hours):
 
Tides and Currents Weather Stations Pressure Air Temp Water Temp Dewpoint Dewpoint Depression Visibility Wind Speed Wind Dir Waves Ship Positions

Tim S. Dool

Last reported at 2014-Sep-18 18:00 UTC. Time now 2014-Sep-19 21:59 UTC.
Position N 49°06' W 067°06'.

Length 223 m; draft 7.8 m.

Type: Cargo ship. MMSI: 316001696.

Wind from 250 at 20 knots

Waves 1.0 meters (3 feet), 4 second period

Barometer 1009.0 mb
Air temperature 13.0 ° C
Visibility: greater than 10.8 NM

Date/timePositionNaut miles runAvg speedWind from/ knotsBaromVisibWave heightAir tempDewpointWater temp
2014-Sep-18 18:00N 49°06' W 067°06'6412.8 250 / 201009.010.8 1.013.0
2014-Sep-18 13:00N 48°42' W 068°36'18411.9 250 / 81010.010.8 0.5 8.0
2014-Sep-17 21:33N 46°38' W 071°57'1312.9
2014-Sep-17 20:33N 46°31' W 072°13'1212.4
2014-Sep-17 19:33N 46°23' W 072°26'1211.7
2014-Sep-17 18:33N 46°16' W 072°40'1312.7
2014-Sep-17 17:33N 46°10' W 072°56'1611.6
2014-Sep-17 16:12N 45°58' W 073°12'813.0
2014-Sep-17 15:34N 45°51' W 073°16'1313.2
2014-Sep-17 14:33N 45°40' W 073°28'10 9.5
2014-Sep-17 13:33N 45°31' W 073°31'2 1.5
2014-Sep-17 12:33N 45°29' W 073°31'4 4.1
2014-Sep-17 11:33N 45°25' W 073°30'3 2.8
2014-Sep-17 10:33N 45°24' W 073°34'3 2.8
2014-Sep-17 09:33N 45°24' W 073°38'3 3.4
2014-Sep-17 08:33N 45°25' W 073°43'6 6.0
2014-Sep-17 07:33N 45°22' W 073°50'4 4.4
2014-Sep-17 06:33N 45°19' W 073°55'1 1.0
2014-Sep-17 05:33N 45°18' W 073°56'2 1.8
2014-Sep-17 04:33N 45°16' W 073°57'7 6.9
2014-Sep-17 03:33N 45°13' W 074°06'103 7.3
2014-Sep-16 13:29N 44°15' W 076°05'2244.3
2014-Sep-16 13:00N 44°12' W 076°36'1227.5 250 / 51013.010.8 16.0
2014-Sep-16 12:33N 44°10' W 076°19'154 6.3
2014-Sep-15 12:00N 42°48' W 079°18'12311.2 310 / 31020.010.8 17.0
2014-Sep-15 01:00N 41°54' W 081°48'68 5.6 290 / 51020.010.8 0.517.0
2014-Sep-14 13:00N 42°54' W 082°30'14011.6 1024.010.8 10.0
2014-Sep-14 01:00N 45°12' W 083°00'5913.0 300 / 141022.010.8 11.0
2014-Sep-13 20:26N 45°58' W 083°54'1010.0
2014-Sep-13 19:26N 46°06' W 084°01'175 9.5
2014-Sep-13 01:00N 47°48' W 087°30'48 1.0 160 / 61023.010.8 0.5 8.0
2014-Sep-11 01:00N 48°24' W 088°18'160 9.7 030 / 301012.0 5.4 2.5 7.0
2014-Sep-10 08:30N 46°59' W 084°57'2713.4
2014-Sep-10 06:30N 46°34' W 084°41'1110.9
2014-Sep-10 05:29N 46°28' W 084°28'5 4.5
2014-Sep-10 04:16N 46°30' W 084°21'12 5.7
2014-Sep-10 02:10N 46°20' W 084°11'6 6.9
2014-Sep-10 01:16N 46°15' W 084°06'6 7.9
2014-Sep-10 00:33N 46°10' W 084°04'1110.9
2014-Sep-09 23:34N 46°02' W 083°53'  

Dump ship's entire track history